createdAt,value
2016-03-28T12:33:48.333Z,944.11
2016-03-28T12:34:48.336Z,944.14
2016-03-28T12:35:48.370Z,944.15
2016-03-28T12:36:48.389Z,944.09
2016-03-28T12:37:48.438Z,944.02
2016-03-28T12:38:48.441Z,944.09
2016-03-28T12:39:48.474Z,944.06
2016-03-28T12:40:48.493Z,944.1
2016-03-28T12:41:48.508Z,944.13
2016-03-28T12:42:48.528Z,944.17
2016-03-28T12:43:48.534Z,944.14
2016-03-28T12:44:48.553Z,944.14
2016-03-28T12:45:48.559Z,944.12
2016-03-28T12:46:48.581Z,944.06
2016-03-28T12:47:48.595Z,944.16
2016-03-28T12:48:48.624Z,944.16
2016-03-28T12:49:48.639Z,944.09
2016-03-28T12:50:48.667Z,944.1
2016-03-28T12:51:48.682Z,944.06
2016-03-28T12:52:48.714Z,944.09
2016-03-28T12:53:48.729Z,944.06
2016-03-28T12:54:48.746Z,944.05
2016-03-28T12:55:48.779Z,944
2016-03-28T12:56:48.811Z,943.94
2016-03-28T12:57:48.828Z,943.92
2016-03-28T12:58:48.847Z,943.91
2016-03-28T12:59:48.881Z,943.93
2016-03-28T13:00:48.914Z,943.94
2016-03-28T13:01:48.932Z,943.91
2016-03-28T13:02:48.951Z,943.94
2016-03-28T13:03:48.984Z,943.93
2016-03-28T13:04:49.001Z,943.97
2016-03-28T13:05:49.051Z,943.98
2016-03-28T13:06:49.053Z,943.94
2016-03-28T13:07:49.088Z,943.95
2016-03-28T13:08:49.105Z,943.97
2016-03-28T13:09:49.139Z,944.01
2016-03-28T13:10:49.158Z,943.99
2016-03-28T13:11:49.191Z,943.97
2016-03-28T13:12:49.210Z,943.99
2016-03-28T13:13:49.244Z,943.96
2016-03-28T13:14:49.262Z,943.96
2016-03-28T13:15:49.280Z,943.94
2016-03-28T13:16:49.315Z,943.86
2016-03-28T13:17:49.348Z,943.8
2016-03-28T13:18:49.367Z,943.9
2016-03-28T13:19:49.385Z,943.92
2016-03-28T13:20:49.419Z,943.91
2016-03-28T13:21:49.437Z,943.88
2016-03-28T13:22:49.471Z,943.87
2016-03-28T13:23:49.489Z,943.94
2016-03-28T13:24:49.523Z,943.88
2016-03-28T13:25:49.542Z,943.97
2016-03-28T13:26:49.575Z,944.01
2016-03-28T13:27:49.594Z,943.94
2016-03-28T13:28:49.628Z,944.01
2016-03-28T13:29:49.849Z,944
2016-03-28T13:30:49.664Z,943.95
2016-03-28T13:31:49.698Z,943.89
2016-03-28T13:32:49.716Z,943.86
2016-03-28T13:33:49.750Z,943.86
2016-03-28T13:34:49.769Z,943.82
2016-03-28T13:35:49.803Z,943.82
2016-03-28T13:36:49.899Z,943.86
2016-03-28T13:37:49.855Z,943.84
2016-03-28T13:38:49.874Z,943.86
2016-03-28T13:39:49.891Z,943.87
2016-03-28T13:40:49.926Z,943.84
2016-03-28T13:41:49.944Z,943.84
2016-03-28T13:42:49.977Z,943.84
2016-03-28T13:43:49.996Z,943.85
2016-03-28T13:44:50.015Z,943.93
2016-03-28T13:45:50.049Z,943.86
2016-03-28T13:46:50.082Z,943.87
2016-03-28T13:47:50.101Z,943.84
2016-03-28T13:48:50.118Z,943.82
2016-03-28T13:49:50.153Z,943.83
2016-03-28T13:50:50.171Z,943.79
2016-03-28T13:51:50.189Z,943.81
2016-03-28T13:52:50.224Z,943.82
2016-03-28T13:53:50.242Z,943.79
2016-03-28T13:54:50.276Z,943.79
2016-03-28T13:55:50.295Z,943.8
2016-03-28T13:56:50.312Z,943.83
2016-03-28T13:57:50.347Z,943.79
2016-03-28T13:58:50.364Z,943.84
2016-03-28T13:59:50.383Z,943.84
2016-03-28T14:00:50.421Z,943.81
2016-03-28T14:01:50.440Z,943.84
2016-03-28T14:02:50.458Z,943.81
2016-03-28T14:03:50.476Z,943.85
2016-03-28T14:04:50.510Z,943.79
2016-03-28T14:05:50.529Z,943.77
2016-03-28T14:06:50.547Z,943.73
2016-03-28T14:07:50.582Z,943.79
2016-03-28T14:08:50.600Z,943.78
2016-03-28T14:09:50.634Z,943.77
2016-03-28T14:10:50.652Z,943.8
2016-03-28T14:11:50.671Z,943.86
2016-03-28T14:12:50.705Z,943.81
2016-03-28T14:13:50.723Z,943.81
2016-03-28T14:14:50.741Z,943.73
2016-03-28T14:15:50.775Z,943.72
2016-03-28T14:16:50.794Z,943.66
2016-03-28T14:17:50.812Z,943.71
2016-03-28T14:18:50.830Z,943.69
2016-03-28T14:19:50.864Z,943.73
2016-03-28T14:20:50.883Z,943.65
2016-03-28T14:21:50.902Z,943.65
2016-03-28T14:22:50.935Z,943.68
2016-03-28T14:23:50.954Z,943.69
2016-03-28T14:24:50.972Z,943.7
2016-03-28T14:25:51.005Z,943.72
2016-03-28T14:26:51.024Z,943.7
2016-03-28T14:27:51.043Z,943.76
2016-03-28T14:28:51.060Z,943.73
2016-03-28T14:29:51.095Z,943.68
2016-03-28T14:30:51.113Z,943.67
2016-03-28T14:31:51.146Z,943.69
2016-03-28T14:32:51.149Z,943.7
2016-03-28T14:33:51.184Z,943.69
2016-03-28T14:34:51.201Z,943.74
2016-03-28T14:35:51.220Z,943.72
2016-03-28T14:36:51.254Z,943.64
2016-03-28T14:37:51.273Z,943.62
2016-03-28T14:38:51.306Z,943.59
2016-03-28T14:39:51.325Z,943.59
2016-03-28T14:40:51.343Z,943.66
2016-03-28T14:41:51.361Z,943.65
2016-03-28T14:42:51.380Z,943.62
2016-03-28T14:43:51.414Z,943.62
2016-03-28T14:44:51.431Z,943.63
2016-03-28T14:45:51.450Z,943.67
2016-03-28T14:46:51.500Z,943.69
2016-03-28T14:47:51.502Z,943.65
2016-03-28T14:48:51.521Z,943.65
2016-03-28T14:49:51.539Z,943.72
2016-03-28T14:50:51.572Z,943.71
2016-03-28T14:51:51.592Z,943.7
2016-03-28T14:52:51.610Z,943.75
2016-03-28T14:53:51.644Z,943.71
2016-03-28T14:54:51.662Z,943.7
2016-03-28T14:55:51.680Z,943.72
2016-03-28T14:56:51.714Z,943.72
2016-03-28T14:57:51.733Z,943.83
2016-03-28T14:58:51.766Z,943.83
2016-03-28T14:59:51.769Z,943.88
2016-03-28T15:00:51.788Z,943.87
2016-03-28T15:01:51.821Z,943.82
2016-03-28T15:02:51.840Z,943.83
2016-03-28T15:03:51.857Z,943.78
2016-03-28T15:04:51.892Z,943.78
2016-03-28T15:05:51.910Z,943.73
2016-03-28T15:06:51.928Z,943.73
2016-03-28T15:07:51.947Z,943.78
2016-03-28T15:08:51.981Z,943.76
2016-03-28T15:09:51.998Z,943.7
2016-03-28T15:10:52.017Z,943.7
2016-03-28T15:11:52.036Z,943.67
2016-03-28T15:12:52.053Z,943.54
2016-03-28T15:13:52.088Z,943.54
2016-03-28T15:14:52.106Z,943.45
2016-03-28T15:15:52.125Z,943.36
2016-03-28T15:16:52.142Z,943.29
2016-03-28T15:17:52.177Z,943.25
2016-03-28T15:18:52.195Z,943.26
2016-03-28T15:19:52.213Z,943.31
2016-03-28T15:20:52.232Z,943.31
2016-03-28T15:21:52.250Z,943.29
2016-03-28T15:22:52.283Z,943.28
2016-03-28T15:23:52.302Z,943.23
2016-03-28T15:24:52.321Z,943.27
2016-03-28T15:25:52.338Z,943.26
2016-03-28T15:26:52.373Z,943.28
2016-03-28T15:27:52.391Z,943.33
2016-03-28T15:28:52.410Z,943.3
2016-03-28T15:29:52.427Z,943.34
2016-03-28T15:30:52.462Z,943.37
2016-03-28T15:31:52.480Z,943.36
2016-03-28T15:32:52.514Z,943.41
2016-03-28T15:33:52.517Z,943.42
2016-03-28T15:34:52.551Z,943.46
2016-03-28T15:35:52.568Z,943.45
2016-03-28T15:36:52.603Z,943.46
2016-03-28T15:37:52.606Z,943.46
2016-03-28T15:38:52.733Z,943.49
2016-03-28T15:39:52.658Z,943.52
2016-03-28T15:40:52.676Z,943.53
2016-03-28T15:41:52.694Z,943.52
2016-03-28T15:42:52.712Z,943.44
2016-03-28T15:43:52.747Z,943.39
2016-03-28T15:44:52.765Z,943.3
2016-03-28T15:45:52.783Z,943.26
2016-03-28T15:46:52.802Z,943.23
2016-03-28T15:47:52.820Z,943.22
2016-03-28T15:48:52.838Z,943.2
2016-03-28T15:49:52.872Z,943.15
2016-03-28T15:50:52.891Z,943.1
2016-03-28T15:51:52.908Z,943.12
2016-03-28T15:52:52.927Z,943.14
2016-03-28T15:53:52.946Z,943.17
2016-03-28T15:54:52.963Z,943.14
2016-03-28T15:55:53.013Z,943.08
2016-03-28T15:56:53.016Z,943.06
2016-03-28T15:57:53.034Z,943.08
2016-03-28T15:58:53.068Z,943.09
2016-03-28T15:59:53.087Z,943.08
2016-03-28T16:00:53.121Z,943.03
2016-03-28T16:01:53.138Z,943.02
2016-03-28T16:02:53.141Z,942.96
2016-03-28T16:03:53.176Z,942.95
2016-03-28T16:04:53.193Z,942.95
2016-03-28T16:05:53.212Z,942.96
2016-03-28T16:06:53.231Z,942.88
2016-03-28T16:07:53.248Z,942.85
2016-03-28T16:08:53.267Z,942.86
2016-03-28T16:09:53.301Z,942.84
2016-03-28T16:10:53.319Z,942.86
2016-03-28T16:11:53.337Z,942.88
2016-03-28T16:12:53.356Z,942.83
2016-03-28T16:13:53.374Z,942.84
2016-03-28T16:14:53.392Z,942.84
2016-03-28T16:15:53.426Z,942.77
2016-03-28T16:16:53.445Z,942.74
2016-03-28T16:17:53.463Z,942.71
2016-03-28T16:18:53.497Z,942.68
2016-03-28T16:19:53.500Z,942.67
2016-03-28T16:20:53.533Z,942.71
2016-03-28T16:21:53.552Z,942.7
2016-03-28T16:22:53.570Z,942.7
2016-03-28T16:23:53.588Z,942.72
2016-03-28T16:24:53.607Z,942.65
2016-03-28T16:25:53.625Z,942.62
2016-03-28T16:26:53.659Z,942.64
2016-03-28T16:27:53.677Z,942.65
2016-03-28T16:28:53.696Z,942.7
2016-03-28T16:29:53.713Z,942.77
2016-03-28T16:30:53.732Z,942.78
2016-03-28T16:31:53.766Z,942.79
2016-03-28T16:32:53.785Z,942.74
2016-03-28T16:33:53.803Z,942.74
2016-03-28T16:34:53.821Z,942.75
2016-03-28T16:35:53.840Z,942.81
2016-03-28T16:36:53.873Z,942.77
2016-03-28T16:37:53.892Z,942.77
2016-03-28T16:38:53.910Z,942.75
2016-03-28T16:39:53.929Z,942.74
2016-03-28T16:40:53.947Z,942.71
2016-03-28T16:41:53.981Z,942.68
2016-03-28T16:42:53.998Z,942.66
2016-03-28T16:43:54.017Z,942.73
2016-03-28T16:44:54.036Z,942.76
2016-03-28T16:45:54.071Z,942.72
2016-03-28T16:46:54.090Z,942.7
2016-03-28T16:47:54.107Z,942.74
2016-03-28T16:48:54.126Z,942.8
2016-03-28T16:49:54.143Z,942.8
2016-03-28T16:50:54.178Z,942.8
2016-03-28T16:51:54.195Z,942.79
2016-03-28T16:52:54.214Z,942.78
2016-03-28T16:53:54.233Z,942.79
2016-03-28T16:54:54.251Z,942.75
2016-03-28T16:55:54.285Z,942.8
2016-03-28T16:56:54.304Z,942.75
2016-03-28T16:57:54.322Z,942.7
2016-03-28T16:58:54.340Z,942.73
2016-03-28T16:59:54.359Z,942.71
2016-03-28T17:00:54.377Z,942.7
2016-03-28T17:01:54.411Z,942.66
2016-03-28T17:02:54.428Z,942.69
2016-03-28T17:03:54.447Z,942.67
2016-03-28T17:04:54.465Z,942.66
2016-03-28T17:05:54.484Z,942.68
2016-03-28T17:06:54.518Z,942.67
2016-03-28T17:07:54.536Z,942.65
2016-03-28T17:08:54.586Z,942.65
2016-03-28T17:09:54.572Z,942.66
2016-03-28T17:10:54.591Z,942.65
2016-03-28T17:11:54.625Z,942.63
2016-03-28T17:12:54.643Z,942.61
2016-03-28T17:13:54.662Z,942.59
2016-03-28T17:14:54.680Z,942.58
2016-03-28T17:15:54.698Z,942.57
2016-03-28T17:16:54.733Z,942.59
2016-03-28T17:17:54.735Z,942.59
2016-03-28T17:18:54.769Z,942.57
2016-03-28T17:19:54.788Z,942.58
2016-03-28T17:20:54.806Z,942.61
2016-03-28T17:21:54.824Z,942.61
2016-03-28T17:22:54.843Z,942.64
2016-03-28T17:23:55.386Z,942.66
2016-03-28T17:24:54.894Z,942.65
2016-03-28T17:25:54.912Z,942.66
2016-03-28T17:26:54.930Z,942.74
2016-03-28T17:27:54.949Z,942.74
2016-03-28T17:28:54.967Z,942.74
2016-03-28T17:29:54.985Z,942.73
2016-03-28T17:30:55.003Z,942.76
2016-03-28T17:31:55.022Z,942.81
2016-03-28T17:32:55.040Z,942.79
2016-03-28T17:33:55.058Z,942.78
2016-03-28T17:34:55.108Z,942.78
2016-03-28T17:35:55.111Z,942.77
2016-03-28T17:36:55.129Z,942.74
2016-03-28T17:37:55.147Z,942.75
2016-03-28T17:38:55.166Z,942.77
2016-03-28T17:39:55.184Z,942.79
2016-03-28T17:40:55.202Z,942.8
2016-03-28T17:41:55.221Z,942.85
2016-03-28T17:42:55.254Z,942.86
2016-03-28T17:43:55.257Z,942.87
2016-03-28T17:44:55.276Z,942.86
2016-03-28T17:45:55.310Z,942.91
2016-03-28T17:46:55.328Z,942.95
2016-03-28T17:47:55.346Z,942.92
2016-03-28T17:48:55.348Z,942.93
2016-03-28T17:49:55.398Z,942.91
2016-03-28T17:50:55.401Z,942.86
2016-03-28T17:51:55.419Z,942.88
2016-03-28T17:52:55.436Z,942.89
2016-03-28T17:53:55.455Z,942.9
2016-03-28T17:54:55.474Z,942.96
2016-03-28T17:55:55.492Z,942.91
2016-03-28T17:56:55.511Z,942.95
2016-03-28T17:57:55.544Z,943
2016-03-28T17:58:55.547Z,943.04
2016-03-28T17:59:55.566Z,943.04
2016-03-28T18:00:55.584Z,943.05
2016-03-28T18:01:55.602Z,943.11
2016-03-28T18:02:55.621Z,943.14
2016-03-28T18:03:55.639Z,943.1
2016-03-28T18:04:55.688Z,943.09
2016-03-28T18:05:55.676Z,943.15
2016-03-28T18:06:55.693Z,943.15
2016-03-28T18:07:55.712Z,943.18
2016-03-28T18:08:55.730Z,943.16
2016-03-28T18:09:55.748Z,943.16
2016-03-28T18:10:55.767Z,943.12
2016-03-28T18:11:55.785Z,943.11
2016-03-28T18:12:55.835Z,943.19
2016-03-28T18:13:55.822Z,943.21
2016-03-28T18:14:55.840Z,943.11
2016-03-28T18:15:55.859Z,943.15
2016-03-28T18:16:55.876Z,943.15
2016-03-28T18:17:55.895Z,943.18
2016-03-28T18:18:55.914Z,943.14
2016-03-28T18:19:55.964Z,943.09
2016-03-28T18:20:55.950Z,943.06
2016-03-28T18:21:55.969Z,943.08
2016-03-28T18:22:56.003Z,943.1
2016-03-28T18:23:56.006Z,943.08
2016-03-28T18:24:56.023Z,943.09
2016-03-28T18:25:56.042Z,943.17
2016-03-28T18:26:56.061Z,943.14
2016-03-28T18:27:56.078Z,943.11
2016-03-28T18:28:56.097Z,943.13
2016-03-28T18:29:56.116Z,943.14
2016-03-28T18:30:56.133Z,943.17
2016-03-28T18:31:56.152Z,943.17
2016-03-28T18:32:56.170Z,943.15
2016-03-28T18:33:56.188Z,943.17
2016-03-28T18:34:56.207Z,943.11
2016-03-28T18:35:56.225Z,943.19
2016-03-28T18:36:56.243Z,943.19
2016-03-28T18:37:56.262Z,943.23
2016-03-28T18:38:56.279Z,943.24
2016-03-28T18:39:56.283Z,943.27
2016-03-28T18:40:56.301Z,943.24
2016-03-28T18:41:56.335Z,943.24
2016-03-28T18:42:56.353Z,943.2
2016-03-28T18:43:56.371Z,943.21
2016-03-28T18:44:56.390Z,943.18
2016-03-28T18:45:56.408Z,943.2
2016-03-28T18:46:56.426Z,943.24
2016-03-28T18:47:56.445Z,943.22
2016-03-28T18:48:56.463Z,943.25
2016-03-28T18:49:56.482Z,943.25
2016-03-28T18:50:56.500Z,943.25
2016-03-28T18:51:56.518Z,943.28
2016-03-28T18:52:56.520Z,943.25
2016-03-28T18:53:56.539Z,943.24
2016-03-28T18:54:56.558Z,943.24
2016-03-28T18:55:56.575Z,943.22
2016-03-28T18:56:56.609Z,943.23
2016-03-28T18:57:56.597Z,943.33
2016-03-28T18:58:56.615Z,943.35
2016-03-28T18:59:56.633Z,943.39
2016-03-28T19:00:56.652Z,943.41
2016-03-28T19:01:56.669Z,943.38
2016-03-28T19:02:56.689Z,943.41
2016-03-28T19:03:56.707Z,943.42
2016-03-28T19:04:56.724Z,943.44
2016-03-28T19:05:56.744Z,943.45
2016-03-28T19:06:56.761Z,943.41
2016-03-28T19:07:56.775Z,943.44
2016-03-28T19:08:56.795Z,943.43
2016-03-28T19:09:56.812Z,943.53
2016-03-28T19:10:56.831Z,943.49
2016-03-28T19:11:56.850Z,943.5
2016-03-28T19:12:56.867Z,943.5
2016-03-28T19:13:56.870Z,943.53
2016-03-28T19:14:56.904Z,943.54
2016-03-28T19:15:56.922Z,943.57
2016-03-28T19:16:56.940Z,943.51
2016-03-28T19:17:56.944Z,943.58
2016-03-28T19:18:56.961Z,943.62
2016-03-28T19:19:56.980Z,943.58
2016-03-28T19:20:56.999Z,943.61
2016-03-28T19:21:57.016Z,943.58
2016-03-28T19:22:57.035Z,943.59
2016-03-28T19:23:57.038Z,943.6
2016-03-28T19:24:57.071Z,943.59
2016-03-28T19:25:57.074Z,943.6
2016-03-28T19:26:57.108Z,943.6
2016-03-28T19:27:57.110Z,943.64
2016-03-28T19:28:57.130Z,943.68
2016-03-28T19:29:57.148Z,943.73
2016-03-28T19:30:57.165Z,943.7
2016-03-28T19:31:57.185Z,943.73
2016-03-28T19:32:57.203Z,943.8
2016-03-28T19:33:57.237Z,943.8
2016-03-28T19:34:57.224Z,943.77
2016-03-28T19:35:57.257Z,943.73
2016-03-28T19:36:57.276Z,943.74
2016-03-28T19:37:57.279Z,943.75
2016-03-28T19:38:57.297Z,943.78
2016-03-28T19:39:57.314Z,943.75
2016-03-28T19:40:57.334Z,943.75
2016-03-28T19:41:57.352Z,943.73
2016-03-28T19:42:57.354Z,943.82
2016-03-28T19:43:57.389Z,943.8
2016-03-28T19:44:57.391Z,943.88
2016-03-28T19:45:57.409Z,943.88
2016-03-28T19:46:57.428Z,943.83
2016-03-28T19:47:57.446Z,943.81
2016-03-28T19:48:57.464Z,943.87
2016-03-28T19:49:57.483Z,943.97
2016-03-28T19:50:57.501Z,943.92
2016-03-28T19:51:57.519Z,943.86
2016-03-28T19:52:57.538Z,943.86
2016-03-28T19:53:57.541Z,943.91
2016-03-28T19:54:57.558Z,943.97
2016-03-28T19:55:57.593Z,943.99
2016-03-28T19:56:57.596Z,944.03
2016-03-28T19:57:57.613Z,944.05
2016-03-28T19:58:57.632Z,944.02
2016-03-28T19:59:57.650Z,944.04
2016-03-28T20:00:57.653Z,944
2016-03-28T20:01:57.671Z,944.05
2016-03-28T20:02:57.690Z,944.1
2016-03-28T20:03:57.707Z,944.03
2016-03-28T20:04:57.726Z,944.11
2016-03-28T20:05:57.745Z,944.06
2016-03-28T20:06:57.762Z,944.09
2016-03-28T20:07:57.781Z,944.04
2016-03-28T20:08:57.784Z,944.04
2016-03-28T20:09:57.802Z,944.04
2016-03-28T20:10:57.836Z,944.07
2016-03-28T20:11:57.839Z,944.01
2016-03-28T20:12:57.873Z,943.98
2016-03-28T20:13:57.876Z,943.98
2016-03-28T20:14:57.894Z,943.96
2016-03-28T20:15:57.911Z,943.97
2016-03-28T20:16:57.915Z,944
2016-03-28T20:17:57.949Z,944.08
2016-03-28T20:18:57.951Z,944.04
2016-03-28T20:19:57.969Z,944.1
2016-03-28T20:20:58.003Z,944.02
2016-03-28T20:21:58.006Z,943.99
2016-03-28T20:22:58.025Z,944.02
2016-03-28T20:23:58.043Z,943.97
2016-03-28T20:24:58.060Z,943.98
2016-03-28T20:25:58.080Z,943.94
2016-03-28T20:26:58.082Z,943.99
2016-03-28T20:27:58.101Z,943.99
2016-03-28T20:28:58.118Z,944.01
2016-03-28T20:29:58.137Z,944.04
2016-03-28T20:30:58.155Z,943.98
2016-03-28T20:31:58.174Z,943.96
2016-03-28T20:32:58.192Z,943.94
2016-03-28T20:33:58.210Z,943.87
2016-03-28T20:34:58.213Z,943.9
2016-03-28T20:35:58.231Z,943.99
2016-03-28T20:36:58.250Z,943.96
2016-03-28T20:37:58.267Z,943.97
2016-03-28T20:38:58.287Z,943.94
2016-03-28T20:39:58.304Z,943.95
2016-03-28T20:40:58.323Z,944.02
2016-03-28T20:41:58.342Z,943.97
2016-03-28T20:42:58.359Z,944.02
2016-03-28T20:43:58.378Z,944
2016-03-28T20:44:58.381Z,944.03
2016-03-28T20:45:58.399Z,944.06
2016-03-28T20:46:58.416Z,944.04
2016-03-28T20:47:58.450Z,944.05
2016-03-28T20:48:58.453Z,944.05
2016-03-28T20:49:58.472Z,944.04
2016-03-28T20:50:58.491Z,944.05
2016-03-28T20:51:58.508Z,944.01
2016-03-28T20:52:58.511Z,943.98
2016-03-28T20:53:58.530Z,944.01
2016-03-28T20:54:58.548Z,943.98
2016-03-28T20:55:58.582Z,944.01
2016-03-28T20:56:58.585Z,944.03
2016-03-28T20:57:58.602Z,944.05
2016-03-28T20:58:58.622Z,944.09
2016-03-28T20:59:58.640Z,944.09
2016-03-28T21:00:58.642Z,944.15
2016-03-28T21:01:58.661Z,944.18
2016-03-28T21:02:58.679Z,944.15
2016-03-28T21:03:58.698Z,944.14
2016-03-28T21:04:58.715Z,944.12
2016-03-28T21:05:58.734Z,944.12
2016-03-28T21:06:58.751Z,944.06
2016-03-28T21:07:58.771Z,944.09
2016-03-28T21:08:58.804Z,944.12
2016-03-28T21:09:58.806Z,944.09
2016-03-28T21:10:58.809Z,944.09
2016-03-28T21:11:58.828Z,944.12
2016-03-28T21:12:58.847Z,944.11
2016-03-28T21:13:58.865Z,944.14
2016-03-28T21:14:58.883Z,944.14
2016-03-28T21:15:58.901Z,944.17
2016-03-28T21:16:58.936Z,944.16
2016-03-28T21:17:58.938Z,944.23
2016-03-28T21:18:58.941Z,944.24
2016-03-28T21:19:58.958Z,944.19
2016-03-28T21:20:58.978Z,944.24
2016-03-28T21:21:58.996Z,944.24
2016-03-28T21:22:59.013Z,944.26
2016-03-28T21:23:59.016Z,944.28
2016-03-28T21:24:59.050Z,944.3
2016-03-28T21:25:59.053Z,944.29
2016-03-28T21:26:59.072Z,944.31
2016-03-28T21:27:59.090Z,944.27
2016-03-28T21:28:59.108Z,944.34
2016-03-28T21:29:59.127Z,944.33
2016-03-28T21:30:59.145Z,944.33
2016-03-28T21:31:59.162Z,944.34
2016-03-28T21:32:59.165Z,944.37
2016-03-28T21:33:59.184Z,944.37
2016-03-28T21:34:59.202Z,944.41
2016-03-28T21:35:59.221Z,944.39
2016-03-28T21:36:59.239Z,944.41
2016-03-28T21:37:59.257Z,944.41
2016-03-28T21:38:59.276Z,944.42
2016-03-28T21:39:59.294Z,944.4
2016-03-28T21:40:59.297Z,944.37
2016-03-28T21:41:59.314Z,944.39
2016-03-28T21:42:59.334Z,944.38
2016-03-28T21:43:59.351Z,944.39
2016-03-28T21:44:59.354Z,944.4
2016-03-28T21:45:59.373Z,944.39
2016-03-28T21:46:59.391Z,944.41
2016-03-28T21:47:59.404Z,944.47
2016-03-28T21:48:59.414Z,944.45
2016-03-28T21:49:59.424Z,944.43
2016-03-28T21:50:59.432Z,944.42
2016-03-28T21:51:59.426Z,944.42
2016-03-28T21:52:59.453Z,944.4
2016-03-28T21:53:59.453Z,944.42
2016-03-28T21:54:59.468Z,944.44
2016-03-28T21:55:59.483Z,944.42
2016-03-28T21:56:59.499Z,944.38
2016-03-28T21:57:59.515Z,944.41
2016-03-28T21:58:59.532Z,944.43
2016-03-28T21:59:59.533Z,944.43
2016-03-28T22:00:59.566Z,944.46
2016-03-28T22:01:59.568Z,944.48
2016-03-28T22:02:59.585Z,944.43
2016-03-28T22:03:59.604Z,944.43
2016-03-28T22:04:59.622Z,944.45
2016-03-28T22:05:59.623Z,944.47
2016-03-28T22:06:59.641Z,944.47
2016-03-28T22:07:59.660Z,944.53
2016-03-28T22:08:59.678Z,944.52
2016-03-28T22:09:59.726Z,944.46
2016-03-28T22:10:59.713Z,944.53
2016-03-28T22:11:59.715Z,944.48
2016-03-28T22:12:59.734Z,944.54
2016-03-28T22:13:59.752Z,944.59
2016-03-28T22:14:59.771Z,944.66
2016-03-28T22:15:59.804Z,944.64
2016-03-28T22:16:59.807Z,944.7
2016-03-28T22:17:59.809Z,944.8
2016-03-28T22:18:59.828Z,944.84
2016-03-28T22:19:59.845Z,944.8
2016-03-28T22:20:59.865Z,944.74
2016-03-28T22:21:59.882Z,944.68
2016-03-28T22:22:59.901Z,944.72
2016-03-28T22:23:59.920Z,944.85
2016-03-28T22:24:59.922Z,944.88
2016-03-28T22:25:59.940Z,944.84
2016-03-28T22:26:59.959Z,944.84
2016-03-28T22:27:59.977Z,944.91
2016-03-28T22:28:59.995Z,944.88
2016-03-28T22:29:59.998Z,944.82
2016-03-28T22:31:00.017Z,944.74
2016-03-28T22:32:00.034Z,944.86
2016-03-28T22:33:00.053Z,945.01
2016-03-28T22:34:00.072Z,945.06
2016-03-28T22:35:00.089Z,944.97
2016-03-28T22:36:00.092Z,945
2016-03-28T22:37:00.111Z,945.06
2016-03-28T22:38:00.144Z,944.99
2016-03-28T22:39:00.147Z,944.95
2016-03-28T22:40:00.166Z,944.91
2016-03-28T22:41:00.183Z,944.86
2016-03-28T22:42:00.186Z,944.88
2016-03-28T22:43:00.205Z,944.91
2016-03-28T22:44:00.223Z,944.97
2016-03-28T22:45:00.241Z,944.94
2016-03-28T22:46:00.260Z,944.96
2016-03-28T22:47:00.262Z,944.97
2016-03-28T22:48:00.281Z,945.03
2016-03-28T22:49:00.298Z,945.06
2016-03-28T22:50:00.318Z,945.04
2016-03-28T22:51:00.335Z,945.1
2016-03-28T22:52:00.354Z,945.19
2016-03-28T22:53:00.357Z,945.35
2016-03-28T22:54:00.375Z,945.46
2016-03-28T22:55:00.393Z,945.55
2016-03-28T22:56:00.412Z,945.59
2016-03-28T22:57:00.414Z,945.62
2016-03-28T22:58:00.433Z,945.71
2016-03-28T22:59:00.450Z,945.8
2016-03-28T23:00:00.470Z,945.85
2016-03-28T23:01:00.487Z,945.95
2016-03-28T23:02:00.506Z,946.12
2016-03-28T23:03:00.509Z,946.12
2016-03-28T23:04:00.527Z,946.03
2016-03-28T23:05:00.545Z,945.99
2016-03-28T23:06:00.564Z,945.89
2016-03-28T23:07:00.582Z,945.89
2016-03-28T23:08:00.585Z,945.9
2016-03-28T23:09:00.619Z,945.8
2016-03-28T23:10:00.622Z,945.74
2016-03-28T23:11:00.639Z,945.65
2016-03-28T23:12:00.658Z,945.66
2016-03-28T23:13:00.660Z,945.71
2016-03-28T23:14:00.694Z,945.64
2016-03-28T23:15:00.696Z,945.61
2016-03-28T23:16:00.716Z,945.62
2016-03-28T23:17:00.734Z,945.66
2016-03-28T23:18:00.751Z,945.66
2016-03-28T23:19:00.754Z,945.68
2016-03-28T23:20:00.773Z,945.69
2016-03-28T23:21:00.791Z,945.68
2016-03-28T23:22:00.810Z,945.67
2016-03-28T23:23:00.812Z,945.69
2016-03-28T23:24:00.831Z,945.61
2016-03-28T23:25:00.848Z,945.64
2016-03-28T23:26:00.868Z,945.63
2016-03-28T23:27:00.886Z,945.63
2016-03-28T23:28:00.888Z,945.65
2016-03-28T23:29:00.923Z,945.64
2016-03-28T23:30:00.925Z,945.7
2016-03-28T23:31:00.943Z,945.78
2016-03-28T23:32:00.962Z,945.77
2016-03-28T23:33:00.980Z,945.82
2016-03-28T23:34:00.983Z,945.82
2016-03-28T23:35:01.000Z,945.83
2016-03-28T23:36:01.020Z,945.82
2016-03-28T23:37:01.038Z,945.73
2016-03-28T23:38:01.040Z,945.71
2016-03-28T23:39:01.058Z,945.72
2016-03-28T23:40:01.077Z,945.67
2016-03-28T23:41:01.094Z,945.71
2016-03-28T23:42:01.098Z,945.69
2016-03-28T23:43:01.116Z,945.65
2016-03-28T23:44:01.135Z,945.65
2016-03-28T23:45:01.152Z,945.57
2016-03-28T23:46:01.171Z,945.49
2016-03-28T23:47:01.174Z,945.47
2016-03-28T23:48:01.192Z,945.55
2016-03-28T23:49:01.210Z,945.56
2016-03-28T23:50:01.229Z,945.48
2016-03-28T23:51:01.231Z,945.44
2016-03-28T23:52:01.249Z,945.39
2016-03-28T23:53:01.268Z,945.52
2016-03-28T23:54:01.287Z,945.46
2016-03-28T23:55:01.289Z,945.43
2016-03-28T23:56:01.307Z,945.42
2016-03-28T23:57:01.325Z,945.39
2016-03-28T23:58:01.344Z,945.42
2016-03-28T23:59:01.362Z,945.4
